createdAt,value
2023-03-21T00:00:46.222Z,11.20
2023-03-21T00:03:14.504Z,11.40
2023-03-21T00:05:43.597Z,11.50
2023-03-21T00:08:11.505Z,11.40
2023-03-21T00:10:43.585Z,11.40
2023-03-21T00:13:15.168Z,11.20
2023-03-21T00:16:15.235Z,11.10
2023-03-21T00:18:52.511Z,11.30
2023-03-21T00:21:40.903Z,11.20
2023-03-21T00:24:10.294Z,11.20
2023-03-21T00:26:38.500Z,11.30
2023-03-21T00:29:06.385Z,11.30
2023-03-21T00:31:34.151Z,11.30
2023-03-21T00:34:02.102Z,11.20
2023-03-21T00:36:32.215Z,11.20
2023-03-21T00:39:01.122Z,11.10
2023-03-21T00:41:41.833Z,11.20
2023-03-21T00:44:16.006Z,11.10
2023-03-21T00:46:54.389Z,11.20
2023-03-21T00:49:35.520Z,11.20
2023-03-21T00:52:38.066Z,11.10
2023-03-21T00:54:54.875Z,11.00
2023-03-21T00:57:37.610Z,10.90
2023-03-21T01:00:10.634Z,10.90
2023-03-21T01:02:43.404Z,11.00
2023-03-21T01:05:12.217Z,10.90
2023-03-21T01:07:39.972Z,10.80
2023-03-21T01:10:08.257Z,10.80
2023-03-21T01:12:36.113Z,10.80
2023-03-21T01:15:04.337Z,10.80
2023-03-21T01:17:32.056Z,10.50
2023-03-21T01:19:59.776Z,10.60
2023-03-21T01:22:27.624Z,10.60
2023-03-21T01:25:05.686Z,10.50
2023-03-21T01:27:41.140Z,10.40
2023-03-21T01:30:19.079Z,10.30
2023-03-21T01:32:48.353Z,10.20
2023-03-21T01:35:16.521Z,10.20
2023-03-21T01:37:44.632Z,10.40
2023-03-21T01:40:21.487Z,10.30
2023-03-21T01:42:51.965Z,10.20
2023-03-21T01:45:59.578Z,10.10
2023-03-21T01:48:44.664Z,10.10
2023-03-21T01:51:13.612Z,10.00
2023-03-21T01:53:56.382Z,10.10
2023-03-21T01:56:33.604Z,10.10
2023-03-21T01:59:28.630Z,10.00
2023-03-21T02:02:18.073Z,10.10
2023-03-21T02:05:02.492Z,10.00
2023-03-21T02:07:36.491Z,10.10
2023-03-21T02:10:14.252Z,10.10
2023-03-21T02:12:46.136Z,10.10
2023-03-21T02:15:14.744Z,10.30
2023-03-21T02:18:09.490Z,10.50
2023-03-21T02:20:54.876Z,10.50
2023-03-21T02:23:47.787Z,10.50
2023-03-21T02:26:23.380Z,10.30
2023-03-21T02:28:58.056Z,10.30
2023-03-21T02:32:09.313Z,10.30
2023-03-21T02:35:21.484Z,10.20
2023-03-21T02:38:00.839Z,10.00
2023-03-21T02:40:42.475Z,9.90
2023-03-21T02:43:22.990Z,9.90
2023-03-21T02:46:18.220Z,10.00
2023-03-21T02:49:04.802Z,9.80
2023-03-21T02:51:35.205Z,9.70
2023-03-21T02:54:28.231Z,10.00
2023-03-21T02:56:59.181Z,10.10
2023-03-21T02:59:28.075Z,10.10
2023-03-21T03:02:00.152Z,10.10
2023-03-21T03:04:29.277Z,10.10
2023-03-21T03:07:01.206Z,10.00
2023-03-21T03:09:42.371Z,9.90
2023-03-21T03:12:19.372Z,9.90
2023-03-21T03:15:05.460Z,9.70
2023-03-21T03:17:50.910Z,9.80
2023-03-21T03:20:44.539Z,9.80
2023-03-21T03:23:27.181Z,9.90
2023-03-21T03:26:12.409Z,9.80
2023-03-21T03:28:46.284Z,9.80
2023-03-21T03:31:26.299Z,9.70
2023-03-21T03:34:07.299Z,9.60
2023-03-21T03:36:47.717Z,9.30
2023-03-21T03:39:18.887Z,9.00
2023-03-21T03:42:27.593Z,8.80
2023-03-21T03:45:06.092Z,8.90
2023-03-21T03:48:07.624Z,9.20
2023-03-21T03:50:50.585Z,9.30
2023-03-21T03:53:34.273Z,9.30
2023-03-21T03:56:02.971Z,9.20
2023-03-21T03:58:44.442Z,9.00
2023-03-21T04:01:14.892Z,9.00
2023-03-21T04:03:50.531Z,9.00
2023-03-21T04:06:20.208Z,9.10
2023-03-21T04:08:51.134Z,9.20
2023-03-21T04:11:19.312Z,9.20
2023-03-21T04:13:52.123Z,9.20
2023-03-21T04:16:24.457Z,9.10
2023-03-21T04:18:52.954Z,8.90
2023-03-21T04:21:22.105Z,8.80
2023-03-21T04:23:49.904Z,8.50
2023-03-21T04:26:18.020Z,8.50
2023-03-21T04:29:07.308Z,8.40
2023-03-21T04:32:16.343Z,8.30
2023-03-21T04:34:54.293Z,8.00
2023-03-21T04:37:24.661Z,8.00
2023-03-21T04:39:53.968Z,8.30
2023-03-21T04:42:22.515Z,8.40
2023-03-21T04:44:50.355Z,8.40
2023-03-21T04:47:20.499Z,8.10
2023-03-21T04:49:48.421Z,7.90
2023-03-21T04:52:16.819Z,7.80
2023-03-21T04:54:44.490Z,7.90
2023-03-21T04:57:12.482Z,8.00
2023-03-21T04:59:41.149Z,8.00
2023-03-21T05:02:09.423Z,8.00
2023-03-21T05:04:37.129Z,7.80
2023-03-21T05:07:05.007Z,7.80
2023-03-21T05:09:32.873Z,8.00
2023-03-21T05:12:00.867Z,8.20
2023-03-21T05:14:31.136Z,8.20
2023-03-21T05:17:05.550Z,8.10
2023-03-21T05:19:40.561Z,8.10
2023-03-21T05:22:11.148Z,7.90
2023-03-21T05:24:41.996Z,7.90
2023-03-21T05:27:26.296Z,7.90
2023-03-21T05:29:54.103Z,7.90
2023-03-21T05:32:21.982Z,8.00
2023-03-21T05:34:49.829Z,8.30
2023-03-21T05:37:19.065Z,8.40
2023-03-21T05:39:49.821Z,8.50
2023-03-21T05:42:25.366Z,8.40
2023-03-21T05:44:53.105Z,8.40
2023-03-21T05:47:26.039Z,8.10
2023-03-21T05:49:55.531Z,7.90
2023-03-21T05:52:24.163Z,7.80
2023-03-21T05:54:51.976Z,7.70
2023-03-21T05:57:23.123Z,8.00
2023-03-21T06:00:04.764Z,8.20
2023-03-21T06:02:43.268Z,8.20
2023-03-21T06:05:29.586Z,8.10
2023-03-21T06:07:57.408Z,7.80
2023-03-21T06:10:25.933Z,8.00
2023-03-21T06:12:53.937Z,8.20
2023-03-21T06:15:29.220Z,8.50
2023-03-21T06:18:06.492Z,8.70
2023-03-21T06:20:35.811Z,8.70
2023-03-21T06:23:09.420Z,8.80
2023-03-21T06:25:37.597Z,8.90
2023-03-21T06:28:05.893Z,8.90
2023-03-21T06:30:35.412Z,8.90
2023-03-21T06:33:14.109Z,9.00
2023-03-21T06:35:41.819Z,9.20
2023-03-21T06:38:10.977Z,9.30
2023-03-21T06:40:40.515Z,9.40
2023-03-21T06:43:08.412Z,9.50
2023-03-21T06:45:36.451Z,9.60
2023-03-21T06:48:04.703Z,9.60
2023-03-21T06:50:43.121Z,9.80
2023-03-21T06:53:10.977Z,9.90
2023-03-21T06:55:58.606Z,9.90
2023-03-21T06:58:27.302Z,10.10
2023-03-21T07:00:55.478Z,10.20
2023-03-21T07:03:23.688Z,10.30
2023-03-21T07:05:52.256Z,10.50
2023-03-21T07:08:20.740Z,10.60
2023-03-21T07:10:49.009Z,10.60
2023-03-21T07:13:17.541Z,10.70
2023-03-21T07:15:55.129Z,10.80
2023-03-21T07:18:22.999Z,10.90
2023-03-21T07:20:51.891Z,11.00
2023-03-21T07:23:21.991Z,11.10
2023-03-21T07:25:51.094Z,11.20
2023-03-21T07:28:19.436Z,11.30
2023-03-21T07:30:53.625Z,11.40
2023-03-21T07:33:21.684Z,11.40
2023-03-21T07:35:53.258Z,11.50
2023-03-21T07:38:22.168Z,11.60
2023-03-21T07:40:50.679Z,11.50
2023-03-21T07:45:58.260Z,11.80
2023-03-21T07:48:28.374Z,11.90
2023-03-21T07:50:56.567Z,12.00
2023-03-21T07:53:24.464Z,12.00
2023-03-21T07:55:55.703Z,12.00
2023-03-21T07:58:25.131Z,12.20
2023-03-21T08:00:53.252Z,12.30
2023-03-21T08:03:21.445Z,12.50
2023-03-21T08:05:49.252Z,12.60
2023-03-21T08:08:17.343Z,12.80
2023-03-21T08:10:45.396Z,13.00
2023-03-21T08:13:13.631Z,13.10
2023-03-21T08:15:42.526Z,13.20
2023-03-21T08:18:11.523Z,13.20
2023-03-21T08:20:39.583Z,13.40
2023-03-21T08:23:07.627Z,13.50
2023-03-21T08:25:35.876Z,13.60
2023-03-21T08:28:04.310Z,13.80
2023-03-21T08:30:32.071Z,13.90
2023-03-21T08:33:01.578Z,14.00
2023-03-21T08:35:31.687Z,14.10
2023-03-21T08:37:59.678Z,14.20
2023-03-21T08:40:27.674Z,14.40
2023-03-21T08:42:55.399Z,14.50
2023-03-21T08:45:23.849Z,14.50
2023-03-21T08:47:51.697Z,14.50
2023-03-21T08:50:22.481Z,14.60
2023-03-21T08:52:50.536Z,14.70
2023-03-21T08:55:19.126Z,14.90
2023-03-21T08:57:47.028Z,15.00
2023-03-21T09:00:18.496Z,15.00
2023-03-21T09:02:48.881Z,15.10
2023-03-21T09:05:17.144Z,15.00
2023-03-21T09:07:45.739Z,15.00
2023-03-21T09:10:22.388Z,15.10
2023-03-21T09:12:52.727Z,15.20
2023-03-21T09:15:24.302Z,15.20
2023-03-21T09:17:54.751Z,15.30
2023-03-21T09:20:31.365Z,15.40
2023-03-21T09:23:02.199Z,15.50
2023-03-21T09:25:31.555Z,15.50
2023-03-21T09:28:00.688Z,15.60
2023-03-21T09:30:29.509Z,15.70
2023-03-21T09:32:58.756Z,15.70
2023-03-21T09:35:27.190Z,15.70
2023-03-21T09:37:57.211Z,15.70
2023-03-21T09:40:52.905Z,15.80
2023-03-21T09:43:35.820Z,16.00
2023-03-21T09:46:36.892Z,16.10
2023-03-21T09:49:20.643Z,16.20
2023-03-21T09:51:51.835Z,16.10
2023-03-21T09:54:22.988Z,16.20
2023-03-21T09:56:56.190Z,16.30
2023-03-21T09:59:38.349Z,16.40
2023-03-21T10:02:49.761Z,16.40
2023-03-21T10:05:27.611Z,16.40
2023-03-21T10:08:04.807Z,16.50
2023-03-21T10:10:38.300Z,16.70
2023-03-21T10:13:14.228Z,16.70
2023-03-21T10:15:42.180Z,16.90
2023-03-21T10:18:16.625Z,17.00
2023-03-21T10:20:44.806Z,16.90
2023-03-21T10:23:16.674Z,17.10
2023-03-21T10:25:48.606Z,17.30
2023-03-21T10:28:22.667Z,17.40
2023-03-21T10:30:55.901Z,17.50
2023-03-21T10:33:32.603Z,17.60
2023-03-21T10:36:05.612Z,17.60
2023-03-21T10:38:34.582Z,17.60
2023-03-21T10:41:02.274Z,17.70
2023-03-21T10:43:35.733Z,17.80
2023-03-21T10:46:09.582Z,17.90
2023-03-21T10:48:40.519Z,18.00
2023-03-21T10:51:09.914Z,18.10
2023-03-21T10:53:41.649Z,18.20
2023-03-21T10:56:11.987Z,18.30
2023-03-21T10:58:47.447Z,18.50
2023-03-21T11:01:30.584Z,18.60
2023-03-21T11:04:01.325Z,18.80
2023-03-21T11:06:36.867Z,18.80
2023-03-21T11:09:14.362Z,18.80
2023-03-21T11:12:09.846Z,18.70
2023-03-21T11:14:49.198Z,18.80
2023-03-21T11:17:20.862Z,18.80
2023-03-21T11:19:55.811Z,19.00
2023-03-21T11:22:27.316Z,19.10
2023-03-21T11:25:00.568Z,19.40
2023-03-21T11:27:32.396Z,19.40
2023-03-21T11:30:02.928Z,19.30
2023-03-21T11:32:33.403Z,19.30
2023-03-21T11:35:03.960Z,19.40
2023-03-21T11:37:39.541Z,19.10
2023-03-21T11:40:19.735Z,19.30
2023-03-21T11:43:11.917Z,19.30
2023-03-21T11:46:06.888Z,19.50
2023-03-21T11:48:41.313Z,19.60
2023-03-21T11:51:27.463Z,19.90
2023-03-21T11:54:16.030Z,20.10
2023-03-21T11:56:54.981Z,20.20
2023-03-21T11:59:40.686Z,20.30
2023-03-21T12:02:48.449Z,20.30
2023-03-21T12:05:26.282Z,20.60
2023-03-21T12:08:15.281Z,20.50
2023-03-21T12:10:54.113Z,20.40
2023-03-21T12:13:36.672Z,20.50
2023-03-21T12:16:19.434Z,20.20
2023-03-21T12:19:21.840Z,20.30
2023-03-21T12:22:03.243Z,20.60
2023-03-21T12:24:52.960Z,20.80
2023-03-21T12:27:29.777Z,20.70
2023-03-21T12:30:27.947Z,20.70
2023-03-21T12:33:01.748Z,20.90
2023-03-21T12:35:54.436Z,21.00
2023-03-21T12:38:43.476Z,21.10
2023-03-21T12:41:30.741Z,20.90
2023-03-21T12:44:08.623Z,20.90
2023-03-21T12:46:48.049Z,21.00
2023-03-21T12:49:19.194Z,20.70
2023-03-21T12:51:59.576Z,21.20
2023-03-21T12:54:32.693Z,21.60
2023-03-21T12:57:10.172Z,21.60
2023-03-21T12:59:47.189Z,21.50
2023-03-21T13:02:18.188Z,21.20
2023-03-21T13:05:18.802Z,21.40
2023-03-21T13:07:52.661Z,21.50
2023-03-21T13:10:23.108Z,21.10
2023-03-21T13:12:58.761Z,21.40
2023-03-21T13:15:45.285Z,21.40
2023-03-21T13:18:35.571Z,21.60
2023-03-21T13:21:12.036Z,21.10
2023-03-21T13:23:40.093Z,21.20
2023-03-21T13:26:12.580Z,21.60
2023-03-21T13:28:41.998Z,21.60
2023-03-21T13:31:27.163Z,21.30
2023-03-21T13:33:59.014Z,21.40
2023-03-21T13:36:31.332Z,21.60
2023-03-21T13:39:07.663Z,21.70
2023-03-21T13:41:43.112Z,21.70
2023-03-21T13:44:32.115Z,21.80
2023-03-21T13:47:06.307Z,21.70
2023-03-21T13:49:37.001Z,21.60
2023-03-21T13:52:10.944Z,21.50
2023-03-21T13:54:57.829Z,21.60
2023-03-21T13:57:32.146Z,21.20
2023-03-21T14:00:20.823Z,21.00
2023-03-21T14:03:18.313Z,21.00
2023-03-21T14:05:51.424Z,21.60
2023-03-21T14:08:31.189Z,21.80
2023-03-21T14:11:07.523Z,21.90
2023-03-21T14:13:48.313Z,21.90
2023-03-21T14:16:19.322Z,22.00
2023-03-21T14:18:55.591Z,21.90
2023-03-21T14:21:28.246Z,21.50
2023-03-21T14:24:06.385Z,21.30
2023-03-21T14:26:36.799Z,21.00
2023-03-21T14:29:09.660Z,21.30
2023-03-21T14:31:48.364Z,21.40
2023-03-21T14:34:17.438Z,21.40
2023-03-21T14:36:51.677Z,21.10
2023-03-21T14:39:32.710Z,21.10
2023-03-21T14:42:07.548Z,21.10
2023-03-21T14:44:56.360Z,21.00
2023-03-21T14:47:29.761Z,20.80
2023-03-21T14:50:00.373Z,20.70
2023-03-21T14:52:32.756Z,20.90
2023-03-21T14:55:02.164Z,21.00
2023-03-21T14:57:32.802Z,21.00
2023-03-21T15:00:10.823Z,20.90
2023-03-21T15:02:40.920Z,20.80
2023-03-21T15:05:33.519Z,20.60
2023-03-21T15:08:14.279Z,20.70
2023-03-21T15:10:42.714Z,20.70
2023-03-21T15:13:20.779Z,20.70
2023-03-21T15:15:49.156Z,20.60
2023-03-21T15:18:29.010Z,20.60
2023-03-21T15:21:03.496Z,20.60
2023-03-21T15:23:36.602Z,20.60
2023-03-21T15:26:05.470Z,20.60
2023-03-21T15:28:36.534Z,20.60
2023-03-21T15:31:06.416Z,20.50
2023-03-21T15:33:34.115Z,20.30
2023-03-21T15:36:01.965Z,20.30
2023-03-21T15:38:42.841Z,20.20
2023-03-21T15:41:18.147Z,20.20
2023-03-21T15:44:02.174Z,20.20
2023-03-21T15:46:49.327Z,20.10
2023-03-21T15:49:17.159Z,19.90
2023-03-21T15:51:52.642Z,20.00
2023-03-21T15:54:32.326Z,19.90
2023-03-21T15:57:04.845Z,19.90
2023-03-21T15:59:40.880Z,20.10
2023-03-21T16:02:30.880Z,20.10
2023-03-21T16:05:27.645Z,20.10
2023-03-21T16:08:09.584Z,20.20
2023-03-21T16:10:38.829Z,20.10
2023-03-21T16:13:07.535Z,20.00
2023-03-21T16:15:35.221Z,19.80
2023-03-21T16:18:07.198Z,19.90
2023-03-21T16:20:41.101Z,19.90
2023-03-21T16:23:16.075Z,19.90
2023-03-21T16:25:45.026Z,20.00
2023-03-21T16:28:16.164Z,20.10
2023-03-21T16:30:44.634Z,20.20
2023-03-21T16:33:13.420Z,20.20
2023-03-21T16:35:41.669Z,20.10
2023-03-21T16:38:12.627Z,20.00
2023-03-21T16:40:43.738Z,19.90
2023-03-21T16:43:12.006Z,19.90
2023-03-21T16:45:39.813Z,19.90
2023-03-21T16:48:09.140Z,19.80
2023-03-21T16:50:42.419Z,19.80
2023-03-21T16:53:10.341Z,19.80
2023-03-21T16:55:39.152Z,19.50
2023-03-21T16:58:07.361Z,19.50
2023-03-21T17:00:35.323Z,19.50
2023-03-21T17:03:13.934Z,19.50
2023-03-21T17:05:42.032Z,19.30
2023-03-21T17:08:18.166Z,19.20
2023-03-21T17:10:46.877Z,19.20
2023-03-21T17:13:14.759Z,19.10
2023-03-21T17:15:42.638Z,19.00
2023-03-21T17:18:11.479Z,19.00
2023-03-21T17:20:41.639Z,19.00
2023-03-21T17:23:10.443Z,19.10
2023-03-21T17:25:38.333Z,19.00
2023-03-21T17:28:06.091Z,18.90
2023-03-21T17:30:35.897Z,18.80
2023-03-21T17:33:04.363Z,18.60
2023-03-21T17:35:32.158Z,18.60
2023-03-21T17:37:59.911Z,18.60
2023-03-21T17:40:30.519Z,18.60
2023-03-21T17:42:59.551Z,18.50
2023-03-21T17:45:27.632Z,18.40
2023-03-21T17:47:55.748Z,18.30
2023-03-21T17:50:26.946Z,18.30
2023-03-21T17:52:57.498Z,18.30
2023-03-21T17:55:26.370Z,18.30
2023-03-21T17:57:54.104Z,18.20
2023-03-21T18:00:28.853Z,18.10
2023-03-21T18:02:57.367Z,18.10
2023-03-21T18:05:26.764Z,18.10
2023-03-21T18:08:10.176Z,18.10
2023-03-21T18:10:39.831Z,18.10
2023-03-21T18:13:07.713Z,18.00
2023-03-21T18:15:38.010Z,17.90
2023-03-21T18:18:06.821Z,17.90
2023-03-21T18:20:50.813Z,17.90
2023-03-21T18:23:19.892Z,17.90
2023-03-21T18:25:47.835Z,17.80
2023-03-21T18:28:19.405Z,17.80
2023-03-21T18:31:07.781Z,17.80
2023-03-21T18:33:40.919Z,17.70
2023-03-21T18:36:09.818Z,17.70
2023-03-21T18:38:37.700Z,17.70
2023-03-21T18:41:08.103Z,17.60
2023-03-21T18:46:25.200Z,17.50
2023-03-21T18:48:52.972Z,17.40
2023-03-21T18:51:21.888Z,17.30
2023-03-21T18:53:49.717Z,17.30
2023-03-21T18:59:06.109Z,17.20
2023-03-21T19:01:33.995Z,17.20
2023-03-21T19:04:23.866Z,17.10
2023-03-21T19:06:50.623Z,17.20
2023-03-21T19:09:18.882Z,17.10
2023-03-21T19:11:47.323Z,17.10
2023-03-21T19:14:16.998Z,17.10
2023-03-21T19:17:23.193Z,17.10
2023-03-21T19:19:33.896Z,17.20
2023-03-21T19:22:01.887Z,17.10
2023-03-21T19:24:29.571Z,17.10
2023-03-21T19:26:57.229Z,17.10
2023-03-21T19:29:26.072Z,17.00
2023-03-21T19:31:54.052Z,17.00
2023-03-21T19:34:23.359Z,16.90
2023-03-21T19:36:52.359Z,16.80
2023-03-21T19:39:22.877Z,16.90
2023-03-21T19:41:51.729Z,16.70
2023-03-21T19:44:22.413Z,16.60
2023-03-21T19:46:51.335Z,16.60
2023-03-21T19:49:22.240Z,16.50
2023-03-21T19:51:51.500Z,16.50
2023-03-21T19:54:19.374Z,16.40
2023-03-21T19:56:48.360Z,16.30
2023-03-21T19:59:17.428Z,16.30
2023-03-21T20:01:45.845Z,16.40
2023-03-21T20:04:14.955Z,16.40
2023-03-21T20:06:42.985Z,16.10
2023-03-21T20:09:49.450Z,15.80
2023-03-21T20:12:00.902Z,15.80
2023-03-21T20:14:28.647Z,15.90
2023-03-21T20:16:57.292Z,15.80
2023-03-21T20:19:25.149Z,15.70
2023-03-21T20:21:58.826Z,15.50
2023-03-21T20:24:28.373Z,15.50
2023-03-21T20:26:56.254Z,15.50
2023-03-21T20:32:11.866Z,15.70
2023-03-21T20:34:39.858Z,15.70
2023-03-21T20:37:08.285Z,15.50
2023-03-21T20:39:38.810Z,15.60
2023-03-21T20:42:07.316Z,15.70
2023-03-21T20:44:55.923Z,15.70
2023-03-21T20:47:23.866Z,15.70
2023-03-21T20:49:51.552Z,15.80
2023-03-21T20:55:09.153Z,15.60
2023-03-21T20:57:38.730Z,15.50
2023-03-21T21:00:18.158Z,15.50
2023-03-21T21:02:48.230Z,15.50
2023-03-21T21:05:28.323Z,15.50
2023-03-21T21:07:59.084Z,15.40
2023-03-21T21:10:26.926Z,15.40
2023-03-21T21:12:54.701Z,15.30
2023-03-21T21:15:22.423Z,15.30
2023-03-21T21:18:05.534Z,15.40
2023-03-21T21:20:36.800Z,15.30
2023-03-21T21:23:05.865Z,15.30
2023-03-21T21:25:34.748Z,15.30
2023-03-21T21:28:03.369Z,15.50
2023-03-21T21:30:32.778Z,15.30
2023-03-21T21:33:01.007Z,15.30
2023-03-21T21:35:28.986Z,15.40
2023-03-21T21:37:56.703Z,15.40
2023-03-21T21:40:25.669Z,15.40
2023-03-21T21:42:53.399Z,15.20
2023-03-21T21:45:21.250Z,15.00
2023-03-21T21:47:48.972Z,14.90
2023-03-21T21:50:16.981Z,14.90
2023-03-21T21:52:52.748Z,14.90
2023-03-21T21:55:21.515Z,15.00
2023-03-21T21:57:50.940Z,15.10
2023-03-21T22:00:20.269Z,15.10
2023-03-21T22:02:48.006Z,15.00
2023-03-21T22:05:19.135Z,15.10
2023-03-21T22:07:48.504Z,15.10
2023-03-21T22:10:16.534Z,15.10
2023-03-21T22:12:44.508Z,15.20
2023-03-21T22:15:14.527Z,15.10
2023-03-21T22:17:42.290Z,15.00
2023-03-21T22:20:12.153Z,15.00
2023-03-21T22:22:40.160Z,14.80
2023-03-21T22:25:10.620Z,14.80
2023-03-21T22:27:38.791Z,14.80
2023-03-21T22:30:09.450Z,14.80
2023-03-21T22:32:38.815Z,14.80
2023-03-21T22:35:09.026Z,14.70
2023-03-21T22:37:39.169Z,14.60
2023-03-21T22:40:10.139Z,14.40
2023-03-21T22:42:39.793Z,14.30
2023-03-21T22:45:11.373Z,14.30
2023-03-21T22:47:39.547Z,14.30
2023-03-21T22:50:08.047Z,14.30
2023-03-21T22:52:35.883Z,14.30
2023-03-21T22:55:03.891Z,14.30
2023-03-21T22:57:31.602Z,14.30
2023-03-21T22:59:59.477Z,14.40
2023-03-21T23:02:27.585Z,14.40
2023-03-21T23:04:55.973Z,14.50
2023-03-21T23:07:23.853Z,14.40
2023-03-21T23:09:52.078Z,14.40
2023-03-21T23:12:19.787Z,14.40
2023-03-21T23:14:47.790Z,14.40
2023-03-21T23:17:16.671Z,14.30
2023-03-21T23:19:45.015Z,14.40
2023-03-21T23:22:13.061Z,14.30
2023-03-21T23:24:40.789Z,14.30
2023-03-21T23:27:08.520Z,14.40
2023-03-21T23:29:36.271Z,14.40
2023-03-21T23:32:04.231Z,14.40
2023-03-21T23:34:32.426Z,14.30
2023-03-21T23:37:00.205Z,14.30
2023-03-21T23:39:28.463Z,14.20
2023-03-21T23:41:58.276Z,14.20
2023-03-21T23:44:26.599Z,14.10
2023-03-21T23:46:54.595Z,14.10
2023-03-21T23:49:22.425Z,14.00
2023-03-21T23:51:50.225Z,14.10
2023-03-21T23:54:18.200Z,14.00
2023-03-21T23:56:46.005Z,14.00
2023-03-21T23:59:13.772Z,14.00
